sensor_id;sensor_type;location;lat;lon;timestamp;P1;durP1;ratioP1;P2;durP2;ratioP2
51336;SDS011;37421;51.176;17.196;2022-11-10T00:00:20;0.52;;;0.20;;
51336;SDS011;37421;51.176;17.196;2022-11-10T00:02:49;0.77;;;0.20;;
51336;SDS011;37421;51.176;17.196;2022-11-10T00:05:15;0.43;;;0.28;;
51336;SDS011;37421;51.176;17.196;2022-11-10T00:07:41;0.30;;;0.30;;
51336;SDS011;37421;51.176;17.196;2022-11-10T00:10:08;0.28;;;0.20;;
51336;SDS011;37421;51.176;17.196;2022-11-10T00:12:34;0.50;;;0.30;;
51336;SDS011;37421;51.176;17.196;2022-11-10T00:15:03;0.40;;;0.30;;
51336;SDS011;37421;51.176;17.196;2022-11-10T00:17:47;1.13;;;0.20;;
51336;SDS011;37421;51.176;17.196;2022-11-10T00:20:14;0.40;;;0.22;;
51336;SDS011;37421;51.176;17.196;2022-11-10T00:22:43;0.30;;;0.20;;
51336;SDS011;37421;51.176;17.196;2022-11-10T00:25:09;0.40;;;0.22;;
51336;SDS011;37421;51.176;17.196;2022-11-10T00:27:36;0.60;;;0.35;;
51336;SDS011;37421;51.176;17.196;2022-11-10T00:30:03;0.40;;;0.20;;
51336;SDS011;37421;51.176;17.196;2022-11-10T00:32:30;0.50;;;0.28;;
51336;SDS011;37421;51.176;17.196;2022-11-10T00:34:59;0.50;;;0.25;;
51336;SDS011;37421;51.176;17.196;2022-11-10T00:37:25;0.17;;;0.10;;
51336;SDS011;37421;51.176;17.196;2022-11-10T00:39:51;0.52;;;0.22;;
51336;SDS011;37421;51.176;17.196;2022-11-10T00:42:16;0.70;;;0.40;;
51336;SDS011;37421;51.176;17.196;2022-11-10T00:44:42;0.40;;;0.25;;
51336;SDS011;37421;51.176;17.196;2022-11-10T00:47:08;0.60;;;0.30;;
51336;SDS011;37421;51.176;17.196;2022-11-10T00:49:36;0.50;;;0.30;;
51336;SDS011;37421;51.176;17.196;2022-11-10T00:52:03;0.82;;;0.40;;
51336;SDS011;37421;51.176;17.196;2022-11-10T00:54:28;1.15;;;0.40;;
51336;SDS011;37421;51.176;17.196;2022-11-10T00:56:54;0.85;;;0.40;;
51336;SDS011;37421;51.176;17.196;2022-11-10T00:59:20;0.60;;;0.30;;
51336;SDS011;37421;51.176;17.196;2022-11-10T01:01:46;0.68;;;0.28;;
51336;SDS011;37421;51.176;17.196;2022-11-10T01:04:12;0.52;;;0.38;;
51336;SDS011;37421;51.176;17.196;2022-11-10T01:06:38;0.30;;;0.20;;
51336;SDS011;37421;51.176;17.196;2022-11-10T01:09:04;0.20;;;0.10;;
51336;SDS011;37421;51.176;17.196;2022-11-10T01:11:29;0.30;;;0.20;;
51336;SDS011;37421;51.176;17.196;2022-11-10T01:13:56;0.17;;;0.10;;
51336;SDS011;37421;51.176;17.196;2022-11-10T01:16:24;0.82;;;0.50;;
51336;SDS011;37421;51.176;17.196;2022-11-10T01:18:55;0.25;;;0.20;;
51336;SDS011;37421;51.176;17.196;2022-11-10T01:21:24;0.38;;;0.22;;
51336;SDS011;37421;51.176;17.196;2022-11-10T01:23:54;0.50;;;0.20;;
51336;SDS011;37421;51.176;17.196;2022-11-10T01:26:20;0.55;;;0.30;;
51336;SDS011;37421;51.176;17.196;2022-11-10T01:28:47;0.57;;;0.25;;
51336;SDS011;37421;51.176;17.196;2022-11-10T01:31:15;0.65;;;0.30;;
51336;SDS011;37421;51.176;17.196;2022-11-10T01:33:42;0.43;;;0.20;;
51336;SDS011;37421;51.176;17.196;2022-11-10T01:36:09;0.05;;;0.05;;
51336;SDS011;37421;51.176;17.196;2022-11-10T01:38:37;0.45;;;0.17;;
51336;SDS011;37421;51.176;17.196;2022-11-10T01:41:04;0.32;;;0.20;;
51336;SDS011;37421;51.176;17.196;2022-11-10T01:43:31;0.30;;;0.20;;
51336;SDS011;37421;51.176;17.196;2022-11-10T01:51:17;0.20;;;0.20;;
51336;SDS011;37421;51.176;17.196;2022-11-10T01:53:54;0.20;;;0.10;;
51336;SDS011;37421;51.176;17.196;2022-11-10T01:56:27;0.40;;;0.28;;
51336;SDS011;37421;51.176;17.196;2022-11-10T01:58:56;0.40;;;0.20;;
51336;SDS011;37421;51.176;17.196;2022-11-10T02:01:25;0.20;;;0.10;;
51336;SDS011;37421;51.176;17.196;2022-11-10T02:03:58;0.30;;;0.20;;
51336;SDS011;37421;51.176;17.196;2022-11-10T02:06:28;0.20;;;0.15;;
51336;SDS011;37421;51.176;17.196;2022-11-10T02:09:01;0.17;;;0.10;;
51336;SDS011;37421;51.176;17.196;2022-11-10T02:11:28;0.40;;;0.30;;
51336;SDS011;37421;51.176;17.196;2022-11-10T02:13:55;0.30;;;0.20;;
51336;SDS011;37421;51.176;17.196;2022-11-10T02:16:21;0.10;;;0.10;;
51336;SDS011;37421;51.176;17.196;2022-11-10T02:18:47;0.10;;;0.10;;
51336;SDS011;37421;51.176;17.196;2022-11-10T02:21:17;0.15;;;0.13;;
51336;SDS011;37421;51.176;17.196;2022-11-10T02:23:46;0.30;;;0.17;;
51336;SDS011;37421;51.176;17.196;2022-11-10T02:28:48;0.20;;;0.20;;
51336;SDS011;37421;51.176;17.196;2022-11-10T02:31:14;0.50;;;0.17;;
51336;SDS011;37421;51.176;17.196;2022-11-10T02:33:40;0.22;;;0.10;;
51336;SDS011;37421;51.176;17.196;2022-11-10T02:36:07;0.95;;;0.20;;
51336;SDS011;37421;51.176;17.196;2022-11-10T02:38:33;0.40;;;0.20;;
51336;SDS011;37421;51.176;17.196;2022-11-10T02:41:00;0.10;;;0.10;;
51336;SDS011;37421;51.176;17.196;2022-11-10T02:43:25;0.20;;;0.20;;
51336;SDS011;37421;51.176;17.196;2022-11-10T02:45:52;1.27;;;0.40;;
51336;SDS011;37421;51.176;17.196;2022-11-10T02:48:18;0.10;;;0.10;;
51336;SDS011;37421;51.176;17.196;2022-11-10T02:50:44;0.43;;;0.17;;
51336;SDS011;37421;51.176;17.196;2022-11-10T02:53:10;0.10;;;0.10;;
51336;SDS011;37421;51.176;17.196;2022-11-10T02:55:36;0.40;;;0.25;;
51336;SDS011;37421;51.176;17.196;2022-11-10T02:58:05;0.20;;;0.10;;
51336;SDS011;37421;51.176;17.196;2022-11-10T03:00:31;0.10;;;0.10;;
51336;SDS011;37421;51.176;17.196;2022-11-10T03:02:57;0.22;;;0.10;;
51336;SDS011;37421;51.176;17.196;2022-11-10T03:05:28;0.80;;;0.10;;
51336;SDS011;37421;51.176;17.196;2022-11-10T03:08:00;0.65;;;0.17;;
51336;SDS011;37421;51.176;17.196;2022-11-10T03:10:27;0.20;;;0.13;;
51336;SDS011;37421;51.176;17.196;2022-11-10T03:12:54;0.17;;;0.10;;
51336;SDS011;37421;51.176;17.196;2022-11-10T03:15:25;0.22;;;0.10;;
51336;SDS011;37421;51.176;17.196;2022-11-10T03:17:52;0.30;;;0.20;;
51336;SDS011;37421;51.176;17.196;2022-11-10T03:20:18;0.10;;;0.10;;
51336;SDS011;37421;51.176;17.196;2022-11-10T03:22:44;0.32;;;0.10;;
51336;SDS011;37421;51.176;17.196;2022-11-10T03:25:10;0.30;;;0.10;;
51336;SDS011;37421;51.176;17.196;2022-11-10T03:27:37;0.08;;;0.00;;
51336;SDS011;37421;51.176;17.196;2022-11-10T03:30:06;0.15;;;0.10;;
51336;SDS011;37421;51.176;17.196;2022-11-10T03:32:32;0.35;;;0.10;;
51336;SDS011;37421;51.176;17.196;2022-11-10T03:34:58;0.30;;;0.20;;
51336;SDS011;37421;51.176;17.196;2022-11-10T03:37:24;0.32;;;0.00;;
51336;SDS011;37421;51.176;17.196;2022-11-10T03:39:50;0.10;;;0.10;;
51336;SDS011;37421;51.176;17.196;2022-11-10T03:42:16;0.20;;;0.10;;
51336;SDS011;37421;51.176;17.196;2022-11-10T03:44:42;0.32;;;0.10;;
51336;SDS011;37421;51.176;17.196;2022-11-10T03:47:08;0.20;;;0.13;;
51336;SDS011;37421;51.176;17.196;2022-11-10T03:49:34;0.35;;;0.15;;
51336;SDS011;37421;51.176;17.196;2022-11-10T03:52:00;0.10;;;0.10;;
51336;SDS011;37421;51.176;17.196;2022-11-10T03:54:26;0.30;;;0.10;;
51336;SDS011;37421;51.176;17.196;2022-11-10T03:56:53;0.30;;;0.10;;
51336;SDS011;37421;51.176;17.196;2022-11-10T03:59:19;0.10;;;0.00;;
51336;SDS011;37421;51.176;17.196;2022-11-10T04:01:45;0.00;;;0.00;;
51336;SDS011;37421;51.176;17.196;2022-11-10T04:04:11;0.52;;;0.20;;
51336;SDS011;37421;51.176;17.196;2022-11-10T04:06:57;0.10;;;0.00;;
51336;SDS011;37421;51.176;17.196;2022-11-10T04:09:41;0.25;;;0.10;;
51336;SDS011;37421;51.176;17.196;2022-11-10T04:12:07;0.10;;;0.10;;
51336;SDS011;37421;51.176;17.196;2022-11-10T04:14:54;0.52;;;0.10;;
51336;SDS011;37421;51.176;17.196;2022-11-10T04:17:38;2.55;;;0.20;;
51336;SDS011;37421;51.176;17.196;2022-11-10T04:20:04;0.15;;;0.10;;
51336;SDS011;37421;51.176;17.196;2022-11-10T04:22:30;0.03;;;0.00;;
51336;SDS011;37421;51.176;17.196;2022-11-10T04:25:15;0.20;;;0.10;;
51336;SDS011;37421;51.176;17.196;2022-11-10T04:27:40;0.10;;;0.00;;
51336;SDS011;37421;51.176;17.196;2022-11-10T04:30:06;0.00;;;0.00;;
51336;SDS011;37421;51.176;17.196;2022-11-10T04:32:35;0.30;;;0.10;;
51336;SDS011;37421;51.176;17.196;2022-11-10T04:35:01;0.05;;;0.00;;
51336;SDS011;37421;51.176;17.196;2022-11-10T04:37:27;0.20;;;0.10;;
51336;SDS011;37421;51.176;17.196;2022-11-10T04:39:52;0.30;;;0.20;;
51336;SDS011;37421;51.176;17.196;2022-11-10T04:42:18;0.38;;;0.10;;
51336;SDS011;37421;51.176;17.196;2022-11-10T04:44:44;0.32;;;0.10;;
51336;SDS011;37421;51.176;17.196;2022-11-10T04:47:10;0.30;;;0.10;;
51336;SDS011;37421;51.176;17.196;2022-11-10T04:49:36;0.22;;;0.05;;
51336;SDS011;37421;51.176;17.196;2022-11-10T04:52:02;0.10;;;0.10;;
51336;SDS011;37421;51.176;17.196;2022-11-10T04:54:28;0.00;;;0.00;;
51336;SDS011;37421;51.176;17.196;2022-11-10T04:56:54;0.00;;;0.00;;
51336;SDS011;37421;51.176;17.196;2022-11-10T04:59:20;0.00;;;0.00;;
51336;SDS011;37421;51.176;17.196;2022-11-10T05:01:45;0.00;;;0.00;;
51336;SDS011;37421;51.176;17.196;2022-11-10T05:04:11;0.10;;;0.00;;
51336;SDS011;37421;51.176;17.196;2022-11-10T05:06:44;0.20;;;0.08;;
51336;SDS011;37421;51.176;17.196;2022-11-10T05:09:10;0.00;;;0.00;;
51336;SDS011;37421;51.176;17.196;2022-11-10T05:11:36;1.23;;;0.05;;
51336;SDS011;37421;51.176;17.196;2022-11-10T05:14:02;0.03;;;0.00;;
51336;SDS011;37421;51.176;17.196;2022-11-10T05:16:28;0.10;;;0.00;;
51336;SDS011;37421;51.176;17.196;2022-11-10T05:18:54;0.20;;;0.00;;
51336;SDS011;37421;51.176;17.196;2022-11-10T05:21:22;0.00;;;0.00;;
51336;SDS011;37421;51.176;17.196;2022-11-10T05:23:48;0.20;;;0.00;;
51336;SDS011;37421;51.176;17.196;2022-11-10T05:26:15;0.00;;;0.00;;
51336;SDS011;37421;51.176;17.196;2022-11-10T05:28:42;0.00;;;0.00;;
51336;SDS011;37421;51.176;17.196;2022-11-10T05:31:10;0.10;;;0.10;;
51336;SDS011;37421;51.176;17.196;2022-11-10T05:33:36;0.00;;;0.00;;
51336;SDS011;37421;51.176;17.196;2022-11-10T05:36:03;0.00;;;0.00;;
51336;SDS011;37421;51.176;17.196;2022-11-10T05:38:30;0.00;;;0.00;;
51336;SDS011;37421;51.176;17.196;2022-11-10T05:40:56;0.00;;;0.00;;
51336;SDS011;37421;51.176;17.196;2022-11-10T05:43:22;0.00;;;0.00;;
51336;SDS011;37421;51.176;17.196;2022-11-10T05:45:48;0.10;;;0.10;;
51336;SDS011;37421;51.176;17.196;2022-11-10T05:48:14;0.00;;;0.00;;
51336;SDS011;37421;51.176;17.196;2022-11-10T05:50:43;0.10;;;0.10;;
51336;SDS011;37421;51.176;17.196;2022-11-10T05:53:09;0.15;;;0.10;;
51336;SDS011;37421;51.176;17.196;2022-11-10T05:55:35;0.65;;;0.00;;
51336;SDS011;37421;51.176;17.196;2022-11-10T05:58:01;0.38;;;0.10;;
51336;SDS011;37421;51.176;17.196;2022-11-10T06:00:28;0.00;;;0.00;;
51336;SDS011;37421;51.176;17.196;2022-11-10T06:03:05;0.03;;;0.00;;
51336;SDS011;37421;51.176;17.196;2022-11-10T06:05:35;0.00;;;0.00;;
51336;SDS011;37421;51.176;17.196;2022-11-10T06:08:04;0.82;;;0.10;;
51336;SDS011;37421;51.176;17.196;2022-11-10T06:10:40;0.08;;;0.08;;
51336;SDS011;37421;51.176;17.196;2022-11-10T06:13:09;0.35;;;0.03;;
51336;SDS011;37421;51.176;17.196;2022-11-10T06:15:35;0.20;;;0.00;;
51336;SDS011;37421;51.176;17.196;2022-11-10T06:18:04;0.28;;;0.05;;
51336;SDS011;37421;51.176;17.196;2022-11-10T06:20:30;0.00;;;0.00;;
51336;SDS011;37421;51.176;17.196;2022-11-10T06:23:06;0.63;;;0.10;;
51336;SDS011;37421;51.176;17.196;2022-11-10T06:25:35;0.30;;;0.10;;
51336;SDS011;37421;51.176;17.196;2022-11-10T06:28:02;0.10;;;0.03;;
51336;SDS011;37421;51.176;17.196;2022-11-10T06:30:29;0.20;;;0.00;;
51336;SDS011;37421;51.176;17.196;2022-11-10T06:32:59;0.20;;;0.10;;
51336;SDS011;37421;51.176;17.196;2022-11-10T06:35:25;0.00;;;0.00;;
51336;SDS011;37421;51.176;17.196;2022-11-10T06:37:59;0.00;;;0.00;;
51336;SDS011;37421;51.176;17.196;2022-11-10T06:40:26;0.20;;;0.10;;
51336;SDS011;37421;51.176;17.196;2022-11-10T06:42:53;0.30;;;0.10;;
51336;SDS011;37421;51.176;17.196;2022-11-10T06:45:19;0.20;;;0.13;;
51336;SDS011;37421;51.176;17.196;2022-11-10T06:47:45;0.08;;;0.00;;
51336;SDS011;37421;51.176;17.196;2022-11-10T06:50:11;0.30;;;0.00;;
51336;SDS011;37421;51.176;17.196;2022-11-10T06:52:37;0.20;;;0.10;;
51336;SDS011;37421;51.176;17.196;2022-11-10T06:55:03;0.00;;;0.00;;
51336;SDS011;37421;51.176;17.196;2022-11-10T06:57:36;0.13;;;0.10;;
51336;SDS011;37421;51.176;17.196;2022-11-10T07:00:10;1.42;;;0.08;;
51336;SDS011;37421;51.176;17.196;2022-11-10T07:02:37;0.03;;;0.00;;
51336;SDS011;37421;51.176;17.196;2022-11-10T07:05:03;0.00;;;0.00;;
51336;SDS011;37421;51.176;17.196;2022-11-10T07:07:32;0.00;;;0.00;;
51336;SDS011;37421;51.176;17.196;2022-11-10T07:09:58;1.30;;;0.10;;
51336;SDS011;37421;51.176;17.196;2022-11-10T07:12:26;0.13;;;0.08;;
51336;SDS011;37421;51.176;17.196;2022-11-10T07:14:52;0.25;;;0.10;;
51336;SDS011;37421;51.176;17.196;2022-11-10T07:17:18;0.00;;;0.00;;
51336;SDS011;37421;51.176;17.196;2022-11-10T07:19:44;0.00;;;0.00;;
51336;SDS011;37421;51.176;17.196;2022-11-10T07:22:10;0.05;;;0.00;;
51336;SDS011;37421;51.176;17.196;2022-11-10T07:24:39;0.00;;;0.00;;
51336;SDS011;37421;51.176;17.196;2022-11-10T07:27:04;0.70;;;0.03;;
51336;SDS011;37421;51.176;17.196;2022-11-10T07:29:37;0.10;;;0.00;;
51336;SDS011;37421;51.176;17.196;2022-11-10T07:32:03;0.15;;;0.05;;
51336;SDS011;37421;51.176;17.196;2022-11-10T07:34:29;0.00;;;0.00;;
51336;SDS011;37421;51.176;17.196;2022-11-10T07:36:55;0.08;;;0.08;;
51336;SDS011;37421;51.176;17.196;2022-11-10T07:39:24;0.03;;;0.00;;
51336;SDS011;37421;51.176;17.196;2022-11-10T07:41:55;0.00;;;0.00;;
51336;SDS011;37421;51.176;17.196;2022-11-10T07:44:22;0.00;;;0.00;;
51336;SDS011;37421;51.176;17.196;2022-11-10T07:46:48;0.17;;;0.10;;
51336;SDS011;37421;51.176;17.196;2022-11-10T07:49:14;0.30;;;0.00;;
51336;SDS011;37421;51.176;17.196;2022-11-10T07:51:41;0.00;;;0.00;;
51336;SDS011;37421;51.176;17.196;2022-11-10T07:54:07;0.10;;;0.00;;
51336;SDS011;37421;51.176;17.196;2022-11-10T07:56:36;0.20;;;0.00;;
51336;SDS011;37421;51.176;17.196;2022-11-10T07:59:05;0.00;;;0.00;;
51336;SDS011;37421;51.176;17.196;2022-11-10T08:01:43;0.28;;;0.05;;
51336;SDS011;37421;51.176;17.196;2022-11-10T08:04:16;0.10;;;0.10;;
51336;SDS011;37421;51.176;17.196;2022-11-10T08:06:42;0.00;;;0.00;;
51336;SDS011;37421;51.176;17.196;2022-11-10T08:09:10;0.00;;;0.00;;
51336;SDS011;37421;51.176;17.196;2022-11-10T08:12:09;0.00;;;0.00;;
51336;SDS011;37421;51.176;17.196;2022-11-10T08:14:32;0.15;;;0.10;;
51336;SDS011;37421;51.176;17.196;2022-11-10T08:16:57;1.98;;;0.10;;
51336;SDS011;37421;51.176;17.196;2022-11-10T08:19:23;0.00;;;0.00;;
51336;SDS011;37421;51.176;17.196;2022-11-10T08:21:52;0.00;;;0.00;;
51336;SDS011;37421;51.176;17.196;2022-11-10T08:24:18;0.22;;;0.10;;
51336;SDS011;37421;51.176;17.196;2022-11-10T08:26:47;0.10;;;0.00;;
51336;SDS011;37421;51.176;17.196;2022-11-10T08:29:16;1.15;;;0.10;;
51336;SDS011;37421;51.176;17.196;2022-11-10T08:31:48;0.05;;;0.00;;
51336;SDS011;37421;51.176;17.196;2022-11-10T08:34:17;0.03;;;0.00;;
51336;SDS011;37421;51.176;17.196;2022-11-10T08:40:31;0.00;;;0.00;;
51336;SDS011;37421;51.176;17.196;2022-11-10T08:43:04;0.00;;;0.00;;
51336;SDS011;37421;51.176;17.196;2022-11-10T08:45:44;0.08;;;0.00;;
51336;SDS011;37421;51.176;17.196;2022-11-10T08:48:17;0.20;;;0.03;;
51336;SDS011;37421;51.176;17.196;2022-11-10T08:50:46;0.15;;;0.00;;
51336;SDS011;37421;51.176;17.196;2022-11-10T08:53:17;0.00;;;0.00;;
51336;SDS011;37421;51.176;17.196;2022-11-10T08:55:47;0.00;;;0.00;;
51336;SDS011;37421;51.176;17.196;2022-11-10T08:58:14;0.00;;;0.00;;
51336;SDS011;37421;51.176;17.196;2022-11-10T09:00:49;0.00;;;0.00;;
51336;SDS011;37421;51.176;17.196;2022-11-10T09:03:24;0.00;;;0.00;;
51336;SDS011;37421;51.176;17.196;2022-11-10T09:06:18;0.00;;;0.00;;
51336;SDS011;37421;51.176;17.196;2022-11-10T09:09:24;0.05;;;0.00;;
51336;SDS011;37421;51.176;17.196;2022-11-10T09:11:56;0.75;;;0.00;;
51336;SDS011;37421;51.176;17.196;2022-11-10T09:17:49;0.00;;;0.00;;
51336;SDS011;37421;51.176;17.196;2022-11-10T09:23:06;0.32;;;0.10;;
51336;SDS011;37421;51.176;17.196;2022-11-10T09:25:35;0.20;;;0.00;;
51336;SDS011;37421;51.176;17.196;2022-11-10T09:28:13;0.00;;;0.00;;
51336;SDS011;37421;51.176;17.196;2022-11-10T09:30:40;0.00;;;0.00;;
51336;SDS011;37421;51.176;17.196;2022-11-10T09:33:06;0.00;;;0.00;;
51336;SDS011;37421;51.176;17.196;2022-11-10T09:35:32;0.03;;;0.00;;
51336;SDS011;37421;51.176;17.196;2022-11-10T09:37:58;0.30;;;0.00;;
51336;SDS011;37421;51.176;17.196;2022-11-10T09:40:48;0.00;;;0.00;;
51336;SDS011;37421;51.176;17.196;2022-11-10T09:43:20;0.00;;;0.00;;
51336;SDS011;37421;51.176;17.196;2022-11-10T09:45:58;0.00;;;0.00;;
51336;SDS011;37421;51.176;17.196;2022-11-10T09:48:28;0.10;;;0.00;;
51336;SDS011;37421;51.176;17.196;2022-11-10T09:51:39;0.00;;;0.00;;
51336;SDS011;37421;51.176;17.196;2022-11-10T09:53:50;0.00;;;0.00;;
51336;SDS011;37421;51.176;17.196;2022-11-10T09:56:21;0.00;;;0.00;;
51336;SDS011;37421;51.176;17.196;2022-11-10T09:58:56;0.00;;;0.00;;
51336;SDS011;37421;51.176;17.196;2022-11-10T10:04:31;0.00;;;0.00;;
51336;SDS011;37421;51.176;17.196;2022-11-10T10:07:44;0.00;;;0.00;;
51336;SDS011;37421;51.176;17.196;2022-11-10T10:10:11;0.00;;;0.00;;
51336;SDS011;37421;51.176;17.196;2022-11-10T10:16:16;0.00;;;0.00;;
51336;SDS011;37421;51.176;17.196;2022-11-10T10:19:06;0.00;;;0.00;;
51336;SDS011;37421;51.176;17.196;2022-11-10T10:24:39;0.00;;;0.00;;
51336;SDS011;37421;51.176;17.196;2022-11-10T10:27:07;0.00;;;0.00;;
51336;SDS011;37421;51.176;17.196;2022-11-10T10:29:37;0.00;;;0.00;;
51336;SDS011;37421;51.176;17.196;2022-11-10T10:32:14;0.10;;;0.00;;
51336;SDS011;37421;51.176;17.196;2022-11-10T10:34:50;0.00;;;0.00;;
51336;SDS011;37421;51.176;17.196;2022-11-10T10:37:23;0.00;;;0.00;;
51336;SDS011;37421;51.176;17.196;2022-11-10T10:40:21;0.00;;;0.00;;
51336;SDS011;37421;51.176;17.196;2022-11-10T10:42:53;0.00;;;0.00;;
51336;SDS011;37421;51.176;17.196;2022-11-10T10:47:59;0.00;;;0.00;;
51336;SDS011;37421;51.176;17.196;2022-11-10T10:51:06;0.00;;;0.00;;
51336;SDS011;37421;51.176;17.196;2022-11-10T10:53:46;0.00;;;0.00;;
51336;SDS011;37421;51.176;17.196;2022-11-10T10:56:23;0.00;;;0.00;;
51336;SDS011;37421;51.176;17.196;2022-11-10T10:58:53;0.00;;;0.00;;
51336;SDS011;37421;51.176;17.196;2022-11-10T11:04:35;0.00;;;0.00;;
51336;SDS011;37421;51.176;17.196;2022-11-10T11:07:18;0.00;;;0.00;;
51336;SDS011;37421;51.176;17.196;2022-11-10T11:09:48;0.00;;;0.00;;
51336;SDS011;37421;51.176;17.196;2022-11-10T11:14:48;0.10;;;0.05;;
51336;SDS011;37421;51.176;17.196;2022-11-10T11:17:19;0.00;;;0.00;;
51336;SDS011;37421;51.176;17.196;2022-11-10T11:19:49;0.00;;;0.00;;
51336;SDS011;37421;51.176;17.196;2022-11-10T11:31:06;0.00;;;0.00;;
51336;SDS011;37421;51.176;17.196;2022-11-10T11:36:32;0.00;;;0.00;;
51336;SDS011;37421;51.176;17.196;2022-11-10T11:41:45;0.10;;;0.00;;
51336;SDS011;37421;51.176;17.196;2022-11-10T11:44:43;0.00;;;0.00;;
51336;SDS011;37421;51.176;17.196;2022-11-10T11:58:21;0.00;;;0.00;;
51336;SDS011;37421;51.176;17.196;2022-11-10T12:24:23;0.00;;;0.00;;
51336;SDS011;37421;51.176;17.196;2022-11-10T12:27:02;0.00;;;0.00;;
51336;SDS011;37421;51.176;17.196;2022-11-10T12:29:45;0.00;;;0.00;;
51336;SDS011;37421;51.176;17.196;2022-11-10T12:32:38;0.00;;;0.00;;
51336;SDS011;37421;51.176;17.196;2022-11-10T12:35:12;0.00;;;0.00;;
51336;SDS011;37421;51.176;17.196;2022-11-10T12:38:02;0.00;;;0.00;;
51336;SDS011;37421;51.176;17.196;2022-11-10T12:40:38;0.00;;;0.00;;
51336;SDS011;37421;51.176;17.196;2022-11-10T12:45:59;0.00;;;0.00;;
51336;SDS011;37421;51.176;17.196;2022-11-10T12:48:30;0.00;;;0.00;;
51336;SDS011;37421;51.176;17.196;2022-11-10T12:54:28;0.00;;;0.00;;
51336;SDS011;37421;51.176;17.196;2022-11-10T12:57:37;0.00;;;0.00;;
51336;SDS011;37421;51.176;17.196;2022-11-10T13:00:06;0.00;;;0.00;;
51336;SDS011;37421;51.176;17.196;2022-11-10T13:02:47;0.00;;;0.00;;
51336;SDS011;37421;51.176;17.196;2022-11-10T13:08:07;0.00;;;0.00;;
51336;SDS011;37421;51.176;17.196;2022-11-10T13:11:20;0.00;;;0.00;;
51336;SDS011;37421;51.176;17.196;2022-11-10T13:13:50;0.00;;;0.00;;
51336;SDS011;37421;51.176;17.196;2022-11-10T13:19:08;0.03;;;0.00;;
51336;SDS011;37421;51.176;17.196;2022-11-10T13:24:36;0.00;;;0.00;;
51336;SDS011;37421;51.176;17.196;2022-11-10T13:27:48;0.00;;;0.00;;
51336;SDS011;37421;51.176;17.196;2022-11-10T13:30:02;0.00;;;0.00;;
51336;SDS011;37421;51.176;17.196;2022-11-10T13:32:32;0.00;;;0.00;;
51336;SDS011;37421;51.176;17.196;2022-11-10T13:38:02;0.00;;;0.00;;
51336;SDS011;37421;51.176;17.196;2022-11-10T13:40:28;0.00;;;0.00;;
51336;SDS011;37421;51.176;17.196;2022-11-10T13:45:42;0.13;;;0.00;;
51336;SDS011;37421;51.176;17.196;2022-11-10T13:55:58;0.00;;;0.00;;
51336;SDS011;37421;51.176;17.196;2022-11-10T13:58:33;0.00;;;0.00;;
51336;SDS011;37421;51.176;17.196;2022-11-10T14:08:53;0.00;;;0.00;;
51336;SDS011;37421;51.176;17.196;2022-11-10T14:11:26;0.00;;;0.00;;
51336;SDS011;37421;51.176;17.196;2022-11-10T14:14:03;0.00;;;0.00;;
51336;SDS011;37421;51.176;17.196;2022-11-10T14:16:39;0.00;;;0.00;;
51336;SDS011;37421;51.176;17.196;2022-11-10T14:21:48;0.00;;;0.00;;
51336;SDS011;37421;51.176;17.196;2022-11-10T14:24:25;0.00;;;0.00;;
51336;SDS011;37421;51.176;17.196;2022-11-10T14:26:52;0.00;;;0.00;;
51336;SDS011;37421;51.176;17.196;2022-11-10T14:32:11;0.00;;;0.00;;
51336;SDS011;37421;51.176;17.196;2022-11-10T14:34:48;0.00;;;0.00;;
51336;SDS011;37421;51.176;17.196;2022-11-10T14:37:20;0.00;;;0.00;;
51336;SDS011;37421;51.176;17.196;2022-11-10T14:39:51;0.00;;;0.00;;
51336;SDS011;37421;51.176;17.196;2022-11-10T14:42:29;0.00;;;0.00;;
51336;SDS011;37421;51.176;17.196;2022-11-10T14:45:34;0.00;;;0.00;;
51336;SDS011;37421;51.176;17.196;2022-11-10T14:47:57;0.17;;;0.00;;
51336;SDS011;37421;51.176;17.196;2022-11-10T14:50:33;0.10;;;0.00;;
51336;SDS011;37421;51.176;17.196;2022-11-10T14:53:01;0.00;;;0.00;;
51336;SDS011;37421;51.176;17.196;2022-11-10T14:55:46;0.00;;;0.00;;
51336;SDS011;37421;51.176;17.196;2022-11-10T14:58:30;0.00;;;0.00;;
51336;SDS011;37421;51.176;17.196;2022-11-10T15:01:03;0.00;;;0.00;;
51336;SDS011;37421;51.176;17.196;2022-11-10T15:03:44;0.00;;;0.00;;
51336;SDS011;37421;51.176;17.196;2022-11-10T15:06:31;0.00;;;0.00;;
51336;SDS011;37421;51.176;17.196;2022-11-10T15:08:58;0.00;;;0.00;;
51336;SDS011;37421;51.176;17.196;2022-11-10T15:11:37;0.00;;;0.00;;
51336;SDS011;37421;51.176;17.196;2022-11-10T15:16:58;0.00;;;0.00;;
51336;SDS011;37421;51.176;17.196;2022-11-10T15:24:48;0.00;;;0.00;;
51336;SDS011;37421;51.176;17.196;2022-11-10T15:27:21;0.00;;;0.00;;
51336;SDS011;37421;51.176;17.196;2022-11-10T15:29:49;0.03;;;0.00;;
51336;SDS011;37421;51.176;17.196;2022-11-10T15:32:20;0.00;;;0.00;;
51336;SDS011;37421;51.176;17.196;2022-11-10T15:34:52;0.00;;;0.00;;
51336;SDS011;37421;51.176;17.196;2022-11-10T15:37:30;0.00;;;0.00;;
51336;SDS011;37421;51.176;17.196;2022-11-10T15:46:00;0.00;;;0.00;;
51336;SDS011;37421;51.176;17.196;2022-11-10T15:48:38;0.20;;;0.00;;
51336;SDS011;37421;51.176;17.196;2022-11-10T15:51:10;0.00;;;0.00;;
51336;SDS011;37421;51.176;17.196;2022-11-10T15:53:47;0.00;;;0.00;;
51336;SDS011;37421;51.176;17.196;2022-11-10T15:56:22;0.00;;;0.00;;
51336;SDS011;37421;51.176;17.196;2022-11-10T16:01:25;0.00;;;0.00;;
51336;SDS011;37421;51.176;17.196;2022-11-10T16:03:53;0.00;;;0.00;;
51336;SDS011;37421;51.176;17.196;2022-11-10T16:06:19;0.00;;;0.00;;
51336;SDS011;37421;51.176;17.196;2022-11-10T16:08:45;0.70;;;0.00;;
51336;SDS011;37421;51.176;17.196;2022-11-10T16:11:18;0.20;;;0.08;;
51336;SDS011;37421;51.176;17.196;2022-11-10T16:13:46;0.00;;;0.00;;
51336;SDS011;37421;51.176;17.196;2022-11-10T16:16:16;0.05;;;0.00;;
51336;SDS011;37421;51.176;17.196;2022-11-10T16:18:43;0.00;;;0.00;;
51336;SDS011;37421;51.176;17.196;2022-11-10T16:21:10;0.00;;;0.00;;
51336;SDS011;37421;51.176;17.196;2022-11-10T16:23:38;0.10;;;0.10;;
51336;SDS011;37421;51.176;17.196;2022-11-10T16:26:08;0.10;;;0.10;;
51336;SDS011;37421;51.176;17.196;2022-11-10T16:28:42;0.00;;;0.00;;
51336;SDS011;37421;51.176;17.196;2022-11-10T16:31:14;0.13;;;0.00;;
51336;SDS011;37421;51.176;17.196;2022-11-10T16:33:45;0.00;;;0.00;;
51336;SDS011;37421;51.176;17.196;2022-11-10T16:36:18;0.10;;;0.10;;
51336;SDS011;37421;51.176;17.196;2022-11-10T16:38:56;0.50;;;0.20;;
51336;SDS011;37421;51.176;17.196;2022-11-10T16:41:26;0.00;;;0.00;;
51336;SDS011;37421;51.176;17.196;2022-11-10T16:43:52;0.30;;;0.10;;
51336;SDS011;37421;51.176;17.196;2022-11-10T16:46:27;0.15;;;0.10;;
51336;SDS011;37421;51.176;17.196;2022-11-10T16:48:54;0.57;;;0.20;;
51336;SDS011;37421;51.176;17.196;2022-11-10T16:51:25;0.13;;;0.13;;
51336;SDS011;37421;51.176;17.196;2022-11-10T16:53:59;0.22;;;0.10;;
51336;SDS011;37421;51.176;17.196;2022-11-10T16:56:25;0.15;;;0.00;;
51336;SDS011;37421;51.176;17.196;2022-11-10T16:58:54;0.20;;;0.10;;
51336;SDS011;37421;51.176;17.196;2022-11-10T17:01:24;0.10;;;0.08;;
51336;SDS011;37421;51.176;17.196;2022-11-10T17:03:53;0.22;;;0.10;;
51336;SDS011;37421;51.176;17.196;2022-11-10T17:06:22;0.17;;;0.10;;
51336;SDS011;37421;51.176;17.196;2022-11-10T17:08:51;0.08;;;0.00;;
51336;SDS011;37421;51.176;17.196;2022-11-10T17:11:18;0.43;;;0.10;;
51336;SDS011;37421;51.176;17.196;2022-11-10T17:13:45;0.95;;;0.15;;
51336;SDS011;37421;51.176;17.196;2022-11-10T17:19:00;0.30;;;0.08;;